Time;durP1;ratioP1;P1;durP2;ratioP2;P2;SDS_P1;SDS_P2;PMS_P1;PMS_P2;Temp;Humidity;BMP_temperature;BMP_pressure;BME280_temperature;BME280_humidity;BME280_pressure;Samples;Min_cycle;Max_cycle;Signal;HPM_P1;HPM_P2
2023/03/30 00:01:37;;;;;;;10.15;7.82;;;;;;;6.16;58.55;99320.66;5088073;28;20084;-72
2023/03/30 00:04:04;;;;;;;10.02;7.70;;;;;;;6.14;58.86;99311.97;5086598;28;20106;-72
2023/03/30 00:06:33;;;;;;;9.90;8.50;;;;;;;6.03;59.17;99283.41;5087514;28;20102;-72
2023/03/30 00:09:02;;;;;;;11.35;8.77;;;;;;;6.10;59.00;99313.84;5087036;28;20352;-71
2023/03/30 00:11:32;;;;;;;9.63;7.72;;;;;;;5.92;58.78;99273.28;5087418;28;20041;-71
2023/03/30 00:14:00;;;;;;;8.90;7.55;;;;;;;6.12;59.03;99296.22;5087054;28;20119;-72
2023/03/30 00:16:27;;;;;;;8.63;7.47;;;;;;;6.11;59.01;99291.88;5086473;28;20199;-72
2023/03/30 00:18:53;;;;;;;8.55;7.47;;;;;;;6.10;59.38;99285.75;5086395;28;20044;-72
2023/03/30 00:21:20;;;;;;;8.70;7.43;;;;;;;6.10;59.45;99291.03;5087096;28;20299;-72
2023/03/30 00:23:47;;;;;;;8.60;7.50;;;;;;;5.90;59.93;99250.59;5087420;28;20045;-73
2023/03/30 00:26:16;;;;;;;8.15;7.35;;;;;;;5.25;60.31;99147.00;5087399;28;20083;-72
2023/03/30 00:28:43;;;;;;;8.73;7.45;;;;;;;6.01;60.36;99277.34;5087411;28;20281;-70
2023/03/30 00:31:10;;;;;;;11.48;8.27;;;;;;;6.00;60.38;99276.50;5069980;28;20028;-72
2023/03/30 00:33:37;;;;;;;13.55;8.68;;;;;;;5.99;60.27;99268.66;5086348;28;20316;-70
2023/03/30 00:36:05;;;;;;;11.73;7.65;;;;;;;5.97;60.40;99271.34;5086985;28;20060;-71
2023/03/30 00:38:31;;;;;;;9.43;8.07;;;;;;;5.97;60.43;99275.75;5087163;28;20037;-71
2023/03/30 00:41:00;;;;;;;9.75;8.45;;;;;;;5.98;60.47;99274.84;5086790;28;20048;-72
2023/03/30 00:43:29;;;;;;;9.15;7.60;;;;;;;5.97;60.71;99276.63;5085887;28;20066;-72
2023/03/30 00:45:56;;;;;;;9.32;7.35;;;;;;;5.96;60.33;99272.28;5085884;28;20044;-71
2023/03/30 00:48:26;;;;;;;8.73;7.45;;;;;;;5.96;60.51;99264.38;5086692;28;20044;-70
2023/03/30 00:50:55;;;;;;;11.15;8.05;;;;;;;5.97;60.41;99265.22;5086872;28;20056;-71
2023/03/30 00:53:25;;;;;;;10.45;6.57;;;;;;;5.95;61.06;99267.91;5085659;28;20239;-70
2023/03/30 00:55:54;;;;;;;10.85;8.95;;;;;;;5.93;60.79;99268.91;5085642;28;20044;-71
2023/03/30 00:58:23;;;;;;;9.65;7.57;;;;;;;5.91;61.08;99268.94;5086466;28;20033;-72
2023/03/30 01:00:52;;;;;;;9.57;8.27;;;;;;;5.88;61.36;99260.31;5086695;28;20036;-71
2023/03/30 01:03:23;;;;;;;9.40;8.40;;;;;;;5.85;61.41;99265.69;5086289;28;20040;-71
2023/03/30 01:05:52;;;;;;;9.55;8.07;;;;;;;5.85;61.40;99265.69;5085453;28;20054;-71
2023/03/30 01:08:22;;;;;;;9.75;7.75;;;;;;;5.86;61.24;99265.63;5086296;28;20066;-71
2023/03/30 01:10:51;;;;;;;9.88;8.18;;;;;;;5.90;61.04;99258.50;5085617;28;20037;-72
2023/03/30 01:13:19;;;;;;;9.98;6.90;;;;;;;5.92;60.94;99254.03;5085284;28;20043;-71
2023/03/30 01:16:01;;;;;;;7.32;6.10;;;;;;;5.93;62.26;99250.47;5085270;28;20045;-71
2023/03/30 01:18:39;;;;;;;8.77;6.95;;;;;;;5.93;61.87;99258.38;5085238;28;20036;-71
2023/03/30 01:21:35;;;;;;;7.30;6.13;;;;;;;5.92;63.49;99244.38;5086315;28;20300;-72
2023/03/30 01:24:53;;;;;;;10.95;7.55;;;;;;;5.81;63.96;99237.78;5086043;28;20360;-72
2023/03/30 01:27:44;;;;;;;9.35;7.22;;;;;;;5.85;63.60;99248.13;5085160;28;20047;-72
2023/03/30 01:30:31;;;;;;;9.95;8.18;;;;;;;5.86;64.12;99257.75;5086468;28;20040;-72
2023/03/30 01:33:28;;;;;;;9.63;8.05;;;;;;;5.86;63.97;99249.00;5085562;28;20040;-72
2023/03/30 01:36:16;;;;;;;8.65;7.60;;;;;;;5.87;63.51;99253.34;5085861;28;20085;-71
2023/03/30 01:39:21;;;;;;;8.57;6.82;;;;;;;5.87;64.00;99248.94;5085922;28;20060;-71
2023/03/30 01:41:58;;;;;;;9.50;7.68;;;;;;;5.86;62.86;99249.84;5076770;28;20045;-71
2023/03/30 01:44:34;;;;;;;10.63;8.38;;;;;;;5.63;63.15;99206.00;5085674;28;20052;-72
2023/03/30 01:47:07;;;;;;;8.20;6.82;;;;;;;5.86;62.64;99249.84;5085165;28;20056;-71
2023/03/30 01:49:41;;;;;;;9.48;7.25;;;;;;;5.86;62.96;99257.75;5085598;28;20044;-69
2023/03/30 01:52:17;;;;;;;9.88;7.53;;;;;;;5.87;63.47;99250.72;5084769;28;20039;-69
2023/03/30 01:54:49;;;;;;;9.40;7.60;;;;;;;5.89;62.35;99248.88;5085666;28;20044;-71
2023/03/30 01:57:23;;;;;;;8.40;7.22;;;;;;;5.90;62.77;99246.19;5084764;28;20036;-71
2023/03/30 01:59:55;;;;;;;9.57;7.45;;;;;;;5.91;62.75;99255.81;5084683;28;20215;-70
2023/03/30 02:02:24;;;;;;;8.95;7.45;;;;;;;5.91;62.11;99253.16;5085391;28;20074;-70
2023/03/30 02:04:54;;;;;;;8.63;7.20;;;;;;;5.92;62.25;99246.13;5085493;28;20053;-70
2023/03/30 02:07:25;;;;;;;7.72;6.80;;;;;;;5.91;62.38;99242.66;5068059;28;20086;-71
2023/03/30 02:09:55;;;;;;;12.13;7.85;;;;;;;5.93;62.19;99243.44;5085963;28;20059;-69
2023/03/30 02:12:28;;;;;;;8.95;7.43;;;;;;;5.93;62.55;99235.56;5084808;28;20044;-71
2023/03/30 02:14:57;;;;;;;9.73;6.70;;;;;;;5.74;63.06;99197.72;5085936;28;20052;-70
2023/03/30 02:17:27;;;;;;;9.88;8.13;;;;;;;5.89;62.93;99231.31;5085232;28;20086;-70
2023/03/30 02:19:56;;;;;;;8.02;7.20;;;;;;;5.90;62.98;99243.56;5084508;28;20239;-69
2023/03/30 02:22:25;;;;;;;12.13;7.53;;;;;;;5.90;63.36;99243.56;5084421;28;20305;-69
2023/03/30 02:24:54;;;;;;;11.32;7.72;;;;;;;5.68;63.79;99211.97;5085803;28;20044;-70
2023/03/30 02:27:24;;;;;;;9.38;7.47;;;;;;;5.86;63.67;99249.84;5087518;28;20112;-69
2023/03/30 02:29:51;;;;;;;8.40;7.50;;;;;;;5.88;63.61;99252.44;5089329;28;20107;-70
2023/03/30 02:32:20;;;;;;;8.85;7.47;;;;;;;5.33;63.82;99162.47;5089803;28;20220;-71
2023/03/30 02:35:02;;;;;;;8.35;7.47;;;;;;;5.86;65.34;99255.13;5089392;28;20036;-71
2023/03/30 02:37:57;;;;;;;10.75;8.43;;;;;;;5.90;66.18;99258.50;5088152;28;20051;-70
2023/03/30 02:40:37;;;;;;;8.97;7.23;;;;;;;5.90;65.65;99254.09;5088765;28;20055;-71
2023/03/30 02:43:23;;;;;;;10.60;7.03;;;;;;;5.75;65.69;99225.72;5088599;28;20044;-71
2023/03/30 02:45:53;;;;;;;8.13;7.28;;;;;;;5.91;64.45;99241.78;5088092;28;20036;-71
2023/03/30 02:48:37;;;;;;;9.98;7.03;;;;;;;5.29;66.55;99166.97;5088374;28;20040;-70
2023/03/30 02:51:22;;;;;;;8.73;6.70;;;;;;;5.90;66.00;99247.97;5087837;28;20037;-71
2023/03/30 02:54:00;;;;;;;8.63;7.75;;;;;;;5.91;65.94;99242.66;5087907;28;20032;-71
2023/03/30 02:56:36;;;;;;;9.45;7.38;;;;;;;5.67;66.31;99193.63;5088778;28;20040;-71
2023/03/30 02:59:11;;;;;;;10.05;7.35;;;;;;;5.36;66.33;99144.81;5087914;28;20044;-71
2023/03/30 03:01:43;;;;;;;8.57;7.47;;;;;;;5.72;65.90;99199.56;5087832;28;20040;-70
2023/03/30 03:04:14;;;;;;;7.78;7.00;;;;;;;5.15;65.48;99118.47;5087792;28;20047;-70
2023/03/30 03:06:42;;;;;;;10.25;8.00;;;;;;;5.92;65.61;99227.72;5088493;28;20063;-71
2023/03/30 03:09:09;;;;;;;9.98;7.68;;;;;;;5.90;66.11;99216.41;5088466;28;20272;-71
2023/03/30 03:11:36;;;;;;;8.40;7.35;;;;;;;5.85;66.04;99200.81;5087614;28;20086;-71
2023/03/30 03:14:03;;;;;;;8.75;7.20;;;;;;;5.82;66.72;99203.53;5087628;28;20036;-71
2023/03/30 03:16:31;;;;;;;10.70;8.05;;;;;;;5.77;67.04;99194.97;5087586;28;20296;-70
2023/03/30 03:18:58;;;;;;;10.05;7.82;;;;;;;5.74;66.97;99205.63;5088934;28;20107;-70
2023/03/30 03:21:24;;;;;;;8.15;6.93;;;;;;;5.47;66.80;99149.66;5088557;28;20059;-70
2023/03/30 03:23:51;;;;;;;9.65;7.07;;;;;;;5.78;66.66;99194.06;5088319;28;20364;-70
2023/03/30 03:26:18;;;;;;;9.93;7.00;;;;;;;5.82;66.45;99203.53;5088792;28;20052;-70
2023/03/30 03:28:45;;;;;;;8.98;7.85;;;;;;;5.82;66.83;99202.69;5087402;28;20243;-70
2023/03/30 03:31:12;;;;;;;8.93;8.00;;;;;;;5.83;66.54;99201.78;5087346;28;20044;-70
2023/03/30 03:33:41;;;;;;;9.80;7.60;;;;;;;5.84;67.13;99191.19;5088500;28;20044;-70
2023/03/30 03:36:10;;;;;;;9.07;8.07;;;;;;;5.84;66.73;99193.81;5088664;28;20051;-71
2023/03/30 03:38:38;;;;;;;9.48;8.05;;;;;;;5.27;66.62;99099.63;5085985;28;20032;-71
2023/03/30 03:41:05;;;;;;;9.68;7.68;;;;;;;5.86;66.67;99199.88;5087815;28;20060;-70
2023/03/30 03:43:32;;;;;;;9.32;7.80;;;;;;;5.87;66.99;99192.84;5088492;28;20040;-70
2023/03/30 03:45:59;;;;;;;8.38;7.40;;;;;;;5.68;67.00;99171.66;5087890;28;20051;-71
2023/03/30 03:48:26;;;;;;;8.30;7.43;;;;;;;5.84;67.65;99201.72;5087863;28;20108;-71
2023/03/30 03:50:56;;;;;;;8.55;7.30;;;;;;;5.82;67.70;99202.69;5086993;28;20059;-70
2023/03/30 03:53:23;;;;;;;9.73;7.78;;;;;;;5.82;67.93;99190.41;5087754;28;20059;-70
2023/03/30 03:55:51;;;;;;;8.85;7.82;;;;;;;5.83;67.84;99194.75;5086899;28;20324;-70
2023/03/30 03:58:18;;;;;;;8.77;7.80;;;;;;;5.83;68.56;99178.97;5088378;28;20181;-70
2023/03/30 04:00:45;;;;;;;8.57;7.15;;;;;;;5.85;67.97;99181.53;5087535;28;20045;-70
2023/03/30 04:03:12;;;;;;;8.88;7.50;;;;;;;5.87;68.11;99177.06;5087719;28;20054;-70
2023/03/30 04:05:39;;;;;;;8.75;7.82;;;;;;;5.86;68.65;99164.84;5087741;28;20342;-70
2023/03/30 04:08:09;;;;;;;8.55;7.45;;;;;;;5.83;69.10;99170.22;5087201;28;20060;-71
2023/03/30 04:10:37;;;;;;;10.05;6.50;;;;;;;5.80;68.88;99180.84;5087405;28;20118;-70
2023/03/30 04:13:04;;;;;;;11.50;6.95;;;;;;;5.78;68.59;99188.81;5086747;28;20154;-70
2023/03/30 04:15:31;;;;;;;9.38;8.48;;;;;;;5.75;69.36;99183.66;5086405;28;20039;-70
2023/03/30 04:17:58;;;;;;;8.35;7.55;;;;;;;5.74;69.17;99184.56;5085961;28;20048;-71
2023/03/30 04:20:26;;;;;;;9.95;7.05;;;;;;;5.68;69.51;99185.66;5087213;28;20054;-70
2023/03/30 04:22:54;;;;;;;10.10;8.88;;;;;;;5.66;69.05;99192.75;5086191;28;20036;-70
2023/03/30 04:25:24;;;;;;;7.65;6.70;;;;;;;5.64;69.33;99194.59;5087475;28;20045;-70
2023/03/30 04:27:51;;;;;;;7.10;6.40;;;;;;;5.68;68.84;99197.97;5087332;28;20048;-71
2023/03/30 04:30:19;;;;;;;8.88;7.90;;;;;;;5.48;68.33;99155.78;5086759;28;20047;-71
2023/03/30 04:32:53;;;;;;;6.90;5.82;;;;;;;5.62;68.00;99193.78;5087575;28;20054;-71
2023/03/30 04:35:20;;;;;;;11.32;7.55;;;;;;;5.51;67.69;99185.44;5086988;28;20062;-71
2023/03/30 04:37:51;;;;;;;9.43;7.75;;;;;;;5.45;67.79;99177.78;5085955;28;20040;-71
2023/03/30 04:40:18;;;;;;;7.82;7.03;;;;;;;5.43;67.64;99172.59;5086622;28;20064;-71
2023/03/30 04:42:48;;;;;;;8.88;7.95;;;;;;;5.38;68.11;99171.03;5086826;28;20051;-71
2023/03/30 04:45:17;;;;;;;7.53;6.68;;;;;;;5.28;67.56;99153.91;5086968;28;20116;-71
2023/03/30 04:47:44;;;;;;;8.68;7.55;;;;;;;5.27;67.30;99150.41;5086648;28;20041;-71
2023/03/30 04:50:12;;;;;;;9.27;6.63;;;;;;;5.26;67.10;99158.34;5086552;28;20052;-71
2023/03/30 04:52:38;;;;;;;8.50;7.05;;;;;;;5.26;67.06;99161.84;5087303;28;20090;-70
2023/03/30 04:55:07;;;;;;;9.05;7.35;;;;;;;5.26;66.92;99167.09;5085708;28;20181;-70
2023/03/30 04:57:34;;;;;;;11.50;7.65;;;;;;;5.27;66.92;99171.44;5086454;28;20041;-70
2023/03/30 05:00:06;;;;;;;8.35;6.63;;;;;;;5.24;67.32;99158.41;5086486;28;20036;-70
2023/03/30 05:02:33;;;;;;;7.65;6.32;;;;;;;5.23;66.89;99166.34;5085501;28;20387;-70
2023/03/30 05:05:00;;;;;;;9.82;6.93;;;;;;;5.23;66.99;99147.97;5085411;28;20037;-71
2023/03/30 05:07:27;;;;;;;9.10;7.60;;;;;;;5.22;66.81;99147.09;5086201;28;20032;-71
2023/03/30 05:09:53;;;;;;;9.23;7.15;;;;;;;4.88;66.91;99089.66;5085977;28;20188;-71
2023/03/30 05:12:21;;;;;;;9.05;7.45;;;;;;;4.67;66.91;99067.66;5086750;28;20111;-71
2023/03/30 05:14:48;;;;;;;10.52;7.70;;;;;;;5.27;67.08;99153.03;5086666;28;20204;-70
2023/03/30 05:17:16;;;;;;;11.18;8.05;;;;;;;5.29;67.08;99143.34;5086047;28;20032;-70
2023/03/30 05:19:43;;;;;;;8.75;7.05;;;;;;;5.30;67.00;99145.03;5085357;28;20036;-70
2023/03/30 05:22:10;;;;;;;9.73;7.15;;;;;;;5.29;66.91;99134.59;5085038;28;20036;-71
2023/03/30 05:24:37;;;;;;;7.88;6.88;;;;;;;5.26;66.95;99139.97;5086214;28;20047;-71
2023/03/30 05:27:05;;;;;;;9.48;7.13;;;;;;;5.29;66.92;99148.59;5086089;28;20192;-71
2023/03/30 05:29:32;;;;;;;7.43;6.53;;;;;;;5.32;66.94;99145.00;5086112;28;20078;-71
2023/03/30 05:31:59;;;;;;;9.40;6.82;;;;;;;5.35;66.94;99156.25;5086154;28;20040;-71
2023/03/30 05:34:27;;;;;;;10.00;7.22;;;;;;;5.34;66.74;99151.91;5084895;28;20173;-71
2023/03/30 05:36:54;;;;;;;11.88;6.93;;;;;;;5.38;66.83;99157.91;5085885;28;20115;-71
2023/03/30 05:39:22;;;;;;;11.23;7.68;;;;;;;5.38;66.78;99161.38;5085894;28;20051;-71
2023/03/30 05:41:48;;;;;;;8.07;7.20;;;;;;;5.36;66.60;99147.44;5085495;28;20399;-71
2023/03/30 05:44:15;;;;;;;9.93;8.15;;;;;;;5.34;66.81;99158.94;5085591;28;20044;-71
2023/03/30 05:46:42;;;;;;;10.18;7.25;;;;;;;5.10;66.87;99116.88;5086169;28;20090;-71
2023/03/30 05:49:09;;;;;;;8.52;6.68;;;;;;;5.28;66.98;99152.13;5085072;28;20050;-70
2023/03/30 05:51:37;;;;;;;9.05;8.07;;;;;;;5.10;67.00;99106.38;5085814;28;20196;-71
2023/03/30 05:54:04;;;;;;;8.50;6.85;;;;;;;5.28;67.14;99141.63;5085721;28;20033;-71
2023/03/30 05:56:31;;;;;;;9.27;7.32;;;;;;;5.29;66.98;99130.19;5085778;28;20051;-71
2023/03/30 05:58:58;;;;;;;8.75;7.28;;;;;;;5.31;66.91;99141.50;5085969;28;20036;-71
2023/03/30 06:01:25;;;;;;;8.40;7.32;;;;;;;5.09;66.98;99095.94;5085239;28;20094;-71
2023/03/30 06:03:51;;;;;;;9.68;8.25;;;;;;;5.34;66.35;99146.66;5085915;28;20056;-71
2023/03/30 06:06:18;;;;;;;8.38;6.97;;;;;;;5.39;66.21;99144.69;5085618;28;20051;-71
2023/03/30 06:08:46;;;;;;;8.23;7.28;;;;;;;5.39;66.33;99144.69;5085745;28;20044;-71
2023/03/30 06:11:13;;;;;;;8.80;6.90;;;;;;;5.44;66.02;99134.03;5085932;28;20108;-70
2023/03/30 06:13:40;;;;;;;11.23;7.32;;;;;;;5.29;65.91;99111.81;5085566;28;20082;-70
2023/03/30 06:16:07;;;;;;;9.45;7.60;;;;;;;5.07;65.32;99074.09;5084398;28;20044;-70
2023/03/30 06:18:34;;;;;;;7.95;6.97;;;;;;;5.39;65.00;99125.44;5085426;28;20049;-70
2023/03/30 06:21:05;;;;;;;11.43;7.05;;;;;;;5.40;64.81;99127.16;5085694;28;20108;-70
2023/03/30 06:23:32;;;;;;;9.98;6.97;;;;;;;5.41;64.76;99124.47;5085479;28;20036;-71
2023/03/30 06:26:00;;;;;;;9.55;7.53;;;;;;;5.44;64.92;99128.75;5085366;28;20036;-71
2023/03/30 06:28:27;;;;;;;11.02;7.43;;;;;;;5.47;64.88;99126.00;5085331;28;20045;-70
2023/03/30 06:30:54;;;;;;;9.20;6.88;;;;;;;4.99;64.92;99036.78;5085095;28;20108;-71
2023/03/30 06:33:21;;;;;;;9.85;7.25;;;;;;;5.58;64.95;99131.72;5085095;28;20060;-70
2023/03/30 06:35:49;;;;;;;9.27;7.00;;;;;;;5.59;65.25;99133.44;5085281;28;20044;-71
2023/03/30 06:38:17;;;;;;;10.13;7.32;;;;;;;2.28;64.90;98567.78;5085099;28;20208;-71
2023/03/30 06:40:44;;;;;;;7.55;6.47;;;;;;;5.24;65.15;99060.34;5084881;28;20048;-70
2023/03/30 06:43:16;;;;;;;9.07;6.68;;;;;;;5.62;65.76;99116.69;5083987;28;20038;-70
2023/03/30 06:45:43;;;;;;;8.40;7.57;;;;;;;5.27;65.15;99055.81;5085389;28;20166;-71
2023/03/30 06:48:10;;;;;;;10.98;7.72;;;;;;;5.67;65.39;99123.47;5085262;28;20304;-70
2023/03/30 06:50:37;;;;;;;9.75;7.15;;;;;;;5.70;65.25;99118.09;5085235;28;20064;-71
2023/03/30 06:53:04;;;;;;;10.82;8.73;;;;;;;2.07;65.32;98522.31;5084469;28;20059;-70
2023/03/30 06:55:32;;;;;;;9.18;7.07;;;;;;;5.76;65.28;99127.53;5085535;28;20044;-71
2023/03/30 06:57:58;;;;;;;20.45;11.48;;;;;;;5.76;65.14;99130.16;5084942;28;20050;-70
2023/03/30 07:00:27;;;;;;;12.65;8.63;;;;;;;5.72;65.15;99132.03;5085461;28;20063;-70
2023/03/30 07:02:55;;;;;;;13.07;8.25;;;;;;;5.53;64.93;99098.63;5084588;28;20044;-71
2023/03/30 07:05:23;;;;;;;11.35;8.55;;;;;;;5.75;64.75;99139.81;5084845;28;20064;-71
2023/03/30 07:07:51;;;;;;;10.05;7.82;;;;;;;5.78;64.79;99134.44;5083959;28;20300;-69
2023/03/30 07:10:18;;;;;;;11.30;8.25;;;;;;;5.85;64.62;99140.31;5084811;28;20059;-69
2023/03/30 07:12:45;;;;;;;12.55;8.55;;;;;;;5.88;64.51;99129.66;5086111;28;20078;-70
2023/03/30 07:15:12;;;;;;;12.02;8.88;;;;;;;5.97;64.49;99125.81;5087645;28;20133;-70
2023/03/30 07:17:41;;;;;;;11.98;9.55;;;;;;;5.78;64.52;99091.50;5087934;28;20249;-70
2023/03/30 07:20:13;;;;;;;12.57;10.10;;;;;;;6.08;64.24;99126.25;5088406;28;20037;-70
2023/03/30 07:22:40;;;;;;;12.52;9.82;;;;;;;6.13;64.30;99129.53;5088212;28;20048;-70
2023/03/30 07:25:08;;;;;;;9.85;8.48;;;;;;;6.13;64.59;99128.69;5088772;28;20051;-69
2023/03/30 07:27:35;;;;;;;12.25;8.90;;;;;;;6.15;64.41;99127.69;5087596;28;20040;-70
2023/03/30 07:30:02;;;;;;;12.90;8.70;;;;;;;6.15;64.57;99127.69;5087326;28;20041;-70
2023/03/30 07:32:29;;;;;;;14.35;10.25;;;;;;;5.96;65.19;99082.88;5087427;28;20131;-69
2023/03/30 07:34:58;;;;;;;12.23;9.13;;;;;;;6.18;65.28;99124.09;5088245;28;20036;-70
2023/03/30 07:37:24;;;;;;;11.02;8.30;;;;;;;6.23;64.97;99115.09;5088127;28;20052;-70
2023/03/30 07:39:51;;;;;;;12.02;9.23;;;;;;;6.07;65.17;99093.81;5088708;28;20170;-71
2023/03/30 07:42:18;;;;;;;15.43;9.32;;;;;;;6.10;65.36;99088.41;5087860;28;20060;-71
2023/03/30 07:44:44;;;;;;;10.38;7.82;;;;;;;6.27;65.31;99118.44;5087673;28;20063;-71
2023/03/30 07:47:11;;;;;;;11.98;8.60;;;;;;;6.35;65.48;99121.63;5088424;28;20100;-71
2023/03/30 07:49:39;;;;;;;15.40;9.52;;;;;;;6.37;65.56;99117.16;5087107;28;20300;-70
2023/03/30 07:52:07;;;;;;;13.35;8.82;;;;;;;6.43;65.40;99137.94;5088351;28;20044;-70
2023/03/30 07:54:34;;;;;;;11.15;8.55;;;;;;;6.50;65.54;99113.06;5087320;28;20028;-70
2023/03/30 07:57:01;;;;;;;13.20;8.00;;;;;;;6.51;65.21;99130.59;5087981;28;20111;-70
2023/03/30 07:59:28;;;;;;;12.63;7.90;;;;;;;6.57;65.28;99132.97;5087287;28;20139;-70
2023/03/30 08:01:55;;;;;;;11.02;8.35;;;;;;;6.82;65.40;99126.66;5087682;28;20032;-70
2023/03/30 08:04:24;;;;;;;12.23;7.75;;;;;;;7.14;64.16;99123.47;5087618;28;20074;-71
2023/03/30 08:06:52;;;;;;;13.65;9.23;;;;;;;7.38;63.36;99137.34;5087358;28;20044;-71
2023/03/30 08:09:20;;;;;;;14.02;9.20;;;;;;;7.26;62.96;99057.00;5087964;28;20272;-71
2023/03/30 08:11:47;;;;;;;11.25;8.68;;;;;;;7.86;62.50;99113.09;5087395;28;20064;-70
2023/03/30 08:14:14;;;;;;;10.27;7.07;;;;;;;7.85;62.08;99114.03;5086226;28;20050;-70
2023/03/30 08:16:41;;;;;;;9.27;7.65;;;;;;;8.03;61.65;99114.94;5087504;28;20036;-71
2023/03/30 08:19:07;;;;;;;7.85;7.05;;;;;;;8.06;61.81;99127.97;5087534;28;20037;-71
2023/03/30 08:21:34;;;;;;;9.43;7.80;;;;;;;8.17;61.68;99114.25;5087236;28;20052;-71
2023/03/30 08:24:01;;;;;;;10.13;9.05;;;;;;;8.18;61.56;99118.59;5086212;28;20044;-72
2023/03/30 08:26:29;;;;;;;9.55;8.55;;;;;;;8.06;61.61;99084.91;5086783;28;20059;-72
2023/03/30 08:28:57;;;;;;;12.55;9.05;;;;;;;8.21;61.90;99116.66;5087319;28;20040;-71
2023/03/30 08:31:23;;;;;;;10.32;7.40;;;;;;;8.21;61.66;99111.38;5087264;28;20051;-71
2023/03/30 08:33:50;;;;;;;12.88;8.35;;;;;;;8.24;61.70;99105.09;5087230;28;20044;-72
2023/03/30 08:36:19;;;;;;;8.85;7.95;;;;;;;8.25;61.64;99097.09;5087098;28;20186;-72
2023/03/30 08:38:46;;;;;;;9.35;7.10;;;;;;;8.23;61.76;99108.69;5086146;28;20124;-72
2023/03/30 08:41:55;;;;;;;12.40;7.85;;;;;;;7.70;62.23;99023.28;5086979;28;20084;-72
2023/03/30 08:44:36;;;;;;;9.35;7.88;;;;;;;8.26;62.31;99111.16;5069606;28;20046;-72
2023/03/30 08:47:05;;;;;;;7.38;6.38;;;;;;;8.30;62.20;99095.09;5087225;28;20045;-72
2023/03/30 08:49:38;;;;;;;7.90;6.70;;;;;;;8.37;62.36;99102.72;5086720;28;20040;-71
2023/03/30 08:52:05;;;;;;;8.52;7.38;;;;;;;8.06;62.00;99047.94;5086886;28;20307;-71
2023/03/30 08:54:33;;;;;;;10.63;7.10;;;;;;;8.43;62.09;99097.97;5086574;28;20036;-71
2023/03/30 08:57:10;;;;;;;9.82;6.93;;;;;;;8.54;62.39;99100.06;5085682;28;20036;-72
2023/03/30 08:59:46;;;;;;;9.43;8.10;;;;;;;8.76;62.38;99102.47;5085978;28;20115;-71
2023/03/30 09:02:19;;;;;;;11.77;7.43;;;;;;;9.09;62.02;99091.91;5086522;28;20047;-72
2023/03/30 09:04:56;;;;;;;9.00;7.15;;;;;;;9.44;61.46;99083.00;5085468;28;20047;-72
2023/03/30 09:07:25;;;;;;;12.80;7.18;;;;;;;9.04;60.45;98967.91;5085430;28;20339;-72
2023/03/30 09:09:53;;;;;;;10.50;8.10;;;;;;;9.88;59.71;99090.25;5085549;28;20314;-72
2023/03/30 09:12:30;;;;;;;9.85;6.97;;;;;;;9.93;59.62;99074.97;5086703;28;20108;-72
2023/03/30 09:15:02;;;;;;;9.98;7.60;;;;;;;9.93;59.49;99077.59;5086451;28;20070;-72
2023/03/30 09:17:33;;;;;;;9.80;7.40;;;;;;;9.79;59.46;99059.00;5085988;28;20041;-72
2023/03/30 09:20:06;;;;;;;8.80;7.00;;;;;;;9.60;59.26;99012.41;5086526;28;20056;-72
2023/03/30 09:22:38;;;;;;;9.07;7.25;;;;;;;9.95;59.52;99076.59;5085540;28;20342;-73
2023/03/30 09:25:14;;;;;;;10.32;8.20;;;;;;;9.92;59.25;99063.53;5086165;28;20036;-72
2023/03/30 09:27:47;;;;;;;8.15;6.20;;;;;;;9.85;59.58;99064.81;5085895;28;20300;-72
2023/03/30 09:30:19;;;;;;;9.57;6.82;;;;;;;9.85;59.59;99064.81;5085905;28;20041;-72
2023/03/30 09:32:56;;;;;;;7.18;6.43;;;;;;;9.82;59.97;99061.47;5085092;28;20043;-72
2023/03/30 09:35:27;;;;;;;10.18;7.30;;;;;;;9.77;60.04;99059.09;5085896;28;20059;-73
2023/03/30 09:37:53;;;;;;;9.38;7.30;;;;;;;9.72;60.11;99061.16;5085792;28;20036;-72
2023/03/30 09:40:34;;;;;;;10.40;6.90;;;;;;;9.55;59.99;99029.50;5084773;28;20041;-72
2023/03/30 09:43:10;;;;;;;7.78;6.97;;;;;;;9.73;59.97;99054.91;5086257;28;20086;-72
2023/03/30 09:45:40;;;;;;;8.80;7.85;;;;;;;9.73;60.22;99059.34;5085972;28;20293;-72
2023/03/30 09:48:09;;;;;;;8.45;7.10;;;;;;;9.71;60.41;99055.94;5085307;28;20044;-72
2023/03/30 09:50:39;;;;;;;9.52;8.07;;;;;;;9.63;60.30;99059.03;5085911;28;20036;-73
2023/03/30 09:53:18;;;;;;;8.80;7.55;;;;;;;9.59;60.63;99045.09;5085582;28;20050;-73
2023/03/30 09:55:57;;;;;;;8.80;7.38;;;;;;;8.83;60.55;98919.72;5085563;28;20044;-72
2023/03/30 09:58:28;;;;;;;8.95;6.60;;;;;;;9.57;60.58;99033.75;5084518;28;20086;-73
2023/03/30 10:01:06;;;;;;;9.75;7.15;;;;;;;9.59;60.64;99034.53;5084747;28;20040;-72
2023/03/30 10:03:33;;;;;;;8.65;7.45;;;;;;;9.56;60.66;99032.06;5084465;28;20396;-71
2023/03/30 10:06:03;;;;;;;8.30;6.93;;;;;;;9.55;60.61;99025.06;5084472;28;20045;-72
2023/03/30 10:08:30;;;;;;;8.30;7.10;;;;;;;9.56;60.53;99024.13;5084619;28;20043;-73
2023/03/30 10:10:59;;;;;;;9.20;7.55;;;;;;;9.57;60.66;99009.94;5085909;28;20094;-73
2023/03/30 10:13:31;;;;;;;12.77;8.90;;;;;;;9.60;60.54;99020.34;5085596;28;20090;-73
2023/03/30 10:16:04;;;;;;;9.13;7.90;;;;;;;9.43;60.52;98990.50;5085773;28;20040;-72
2023/03/30 10:18:37;;;;;;;8.70;7.05;;;;;;;9.58;60.61;99013.44;5085200;28;20041;-72
2023/03/30 10:21:07;;;;;;;8.27;7.47;;;;;;;8.78;60.65;98887.44;5084470;28;20058;-72
2023/03/30 10:23:38;;;;;;;9.43;7.53;;;;;;;9.59;60.58;99005.41;5085100;28;20107;-72
2023/03/30 10:26:12;;;;;;;10.18;6.30;;;;;;;9.23;60.44;98954.56;5084308;28;20040;-73
2023/03/30 10:28:40;;;;;;;8.35;6.80;;;;;;;9.55;60.48;98995.09;5084384;28;20051;-73
2023/03/30 10:31:16;;;;;;;7.82;6.97;;;;;;;9.58;60.45;98993.13;5085181;28;20048;-72
2023/03/30 10:33:44;;;;;;;10.75;7.65;;;;;;;9.36;60.44;98950.28;5085078;28;20043;-72
2023/03/30 10:36:14;;;;;;;10.20;6.82;;;;;;;9.58;60.54;98993.13;5085041;28;20292;-72
2023/03/30 10:38:42;;;;;;;9.75;8.60;;;;;;;9.58;60.46;98977.25;5085229;28;20115;-72
2023/03/30 10:41:13;;;;;;;8.15;7.35;;;;;;;9.33;60.65;98934.59;5084040;28;20068;-71
2023/03/30 10:43:40;;;;;;;12.10;7.60;;;;;;;9.47;60.32;98936.50;5085273;28;20231;-71
2023/03/30 10:46:13;;;;;;;9.90;7.43;;;;;;;9.68;60.63;98961.72;5084153;28;20216;-72
2023/03/30 10:48:56;;;;;;;9.52;8.48;;;;;;;9.73;60.55;98962.28;5086795;28;20044;-72
2023/03/30 10:51:34;;;;;;;8.10;6.70;;;;;;;9.49;60.50;98913.44;5088039;28;20047;-72
2023/03/30 10:54:10;;;;;;;7.53;6.53;;;;;;;9.81;60.48;98957.41;5089363;28;20238;-72
2023/03/30 10:56:44;;;;;;;10.10;7.55;;;;;;;9.43;60.47;98890.84;5088967;28;20378;-72
2023/03/30 10:59:41;;;;;;;10.95;7.40;;;;;;;9.82;60.80;98947.69;5088052;28;20052;-72
2023/03/30 11:02:25;;;;;;;10.40;7.55;;;;;;;9.65;60.61;98914.25;5085921;28;20300;-72
2023/03/30 11:04:58;;;;;;;9.50;7.50;;;;;;;9.87;60.41;98950.91;5088060;28;20048;-72
2023/03/30 11:07:31;;;;;;;11.30;7.65;;;;;;;9.90;60.42;98948.94;5089077;28;20036;-72
2023/03/30 11:10:06;;;;;;;10.73;7.65;;;;;;;9.92;60.26;98952.34;5087627;28;20082;-71
2023/03/30 11:12:37;;;;;;;8.32;7.10;;;;;;;9.95;60.34;98952.16;5087831;28;20044;-72
2023/03/30 11:15:10;;;;;;;8.77;6.82;;;;;;;9.97;60.22;98940.63;5088866;28;20048;-72
2023/03/30 11:17:48;;;;;;;10.02;7.72;;;;;;;9.97;60.54;98935.34;5087488;28;20119;-72
2023/03/30 11:20:23;;;;;;;8.23;7.43;;;;;;;9.46;60.50;98872.16;5087519;28;20096;-72
2023/03/30 11:22:57;;;;;;;10.48;8.63;;;;;;;9.97;60.47;98930.88;5088287;28;20108;-72
2023/03/30 11:25:29;;;;;;;10.67;6.83;;;;;;;9.78;60.62;98899.38;5088329;28;20051;-71
2023/03/30 11:28:01;;;;;;;11.05;8.23;;;;;;;9.56;60.62;98861.88;5087944;28;20470;-70
2023/03/30 11:30:31;;;;;;;11.25;7.75;;;;;;;9.99;60.53;98930.81;5087209;28;20051;-71
2023/03/30 11:33:07;;;;;;;17.85;8.98;;;;;;;9.98;60.59;98929.09;5087295;28;20044;-71
2023/03/30 11:35:39;;;;;;;8.82;7.72;;;;;;;9.97;60.48;98920.31;5088233;28;20284;-72
2023/03/30 11:38:13;;;;;;;9.40;7.53;;;;;;;9.30;60.42;98798.09;5087920;28;20319;-71
2023/03/30 11:40:44;;;;;;;7.85;7.07;;;;;;;10.00;60.44;98909.53;5087157;28;20127;-71
2023/03/30 11:43:12;;;;;;;9.68;7.80;;;;;;;9.11;60.15;98751.66;5087495;28;20048;-70
2023/03/30 11:45:48;;;;;;;10.15;7.18;;;;;;;9.89;60.31;98881.06;5087386;28;20044;-71
2023/03/30 11:48:46;;;;;;;10.55;8.55;;;;;;;10.09;60.51;98911.63;5088231;28;20036;-71
2023/03/30 11:51:28;;;;;;;10.23;7.85;;;;;;;10.11;60.43;98893.84;5087924;28;20040;-71
2023/03/30 11:54:05;;;;;;;9.70;7.68;;;;;;;10.13;60.41;98880.53;5087651;28;20045;-71
2023/03/30 11:56:39;;;;;;;8.82;7.43;;;;;;;10.15;60.69;98866.25;5086878;28;20033;-72